createdAt,value
2023-05-10T00:02:17.827Z,100927.31
2023-05-10T00:04:47.436Z,100935.13
2023-05-10T00:07:18.452Z,100931.03
2023-05-10T00:09:48.078Z,100928.59
2023-05-10T00:12:17.687Z,100931.47
2023-05-10T00:14:47.607Z,100926.72
2023-05-10T00:17:17.452Z,100927.38
2023-05-10T00:19:47.911Z,100925.75
2023-05-10T00:22:17.511Z,100922.88
2023-05-10T00:24:47.132Z,100919.44
2023-05-10T00:27:16.944Z,100924.50
2023-05-10T00:29:46.581Z,100915.38
2023-05-10T00:32:16.556Z,100915.69
2023-05-10T00:34:46.294Z,100927.00
2023-05-10T00:37:15.935Z,100919.16
2023-05-10T00:39:45.552Z,100919.56
2023-05-10T00:42:15.222Z,100924.94
2023-05-10T00:44:45.041Z,100931.72
2023-05-10T00:47:14.748Z,100928.25
2023-05-10T00:49:44.834Z,100920.78
2023-05-10T00:52:14.464Z,100921.25
2023-05-10T00:54:44.199Z,100916.19
2023-05-10T00:57:14.257Z,100902.44
2023-05-10T00:59:44.125Z,100911.00
2023-05-10T01:02:15.609Z,100907.75
2023-05-10T01:04:46.093Z,100905.19
2023-05-10T01:07:15.792Z,100896.81
2023-05-10T01:09:45.447Z,100901.91
2023-05-10T01:12:15.440Z,100895.84
2023-05-10T01:14:45.432Z,100883.53
2023-05-10T01:17:16.280Z,100893.53
2023-05-10T01:19:45.978Z,100889.81
2023-05-10T01:22:54.891Z,100881.34
2023-05-10T01:26:00.306Z,100887.28
2023-05-10T01:28:57.345Z,100893.69
2023-05-10T01:31:54.948Z,100898.19
2023-05-10T01:34:30.645Z,100898.81
2023-05-10T01:37:14.146Z,100900.34
2023-05-10T01:40:21.385Z,100907.06
2023-05-10T01:42:57.867Z,100904.53
2023-05-10T01:45:53.675Z,100906.94
2023-05-10T01:48:24.155Z,100908.38
2023-05-10T01:50:55.340Z,100896.81
2023-05-10T01:53:25.738Z,100905.59
2023-05-10T01:55:58.198Z,100900.19
2023-05-10T01:58:39.387Z,100909.41
2023-05-10T02:01:10.553Z,100900.78
2023-05-10T02:03:43.859Z,100897.84
2023-05-10T02:06:15.875Z,100900.53
2023-05-10T02:08:49.228Z,100896.03
2023-05-10T02:11:20.646Z,100899.88
2023-05-10T02:13:52.281Z,100895.97
2023-05-10T02:16:26.959Z,100886.00
2023-05-10T02:18:58.969Z,100890.47
2023-05-10T02:21:31.047Z,100884.59
2023-05-10T02:24:02.504Z,100868.50
2023-05-10T02:26:34.408Z,100867.78
2023-05-10T02:29:06.668Z,100869.47
2023-05-10T02:31:38.023Z,100872.63
2023-05-10T02:34:09.919Z,100861.50
2023-05-10T02:36:41.421Z,100870.66
2023-05-10T02:39:15.183Z,100870.13
2023-05-10T02:41:46.387Z,100852.22
2023-05-10T02:44:20.770Z,100865.47
2023-05-10T02:46:50.637Z,100852.03
2023-05-10T02:49:21.238Z,100847.97
2023-05-10T02:52:02.217Z,100837.28
2023-05-10T02:54:36.142Z,100832.75
2023-05-10T02:57:09.454Z,100831.00
2023-05-10T02:59:39.541Z,100835.63
2023-05-10T03:02:09.495Z,100827.94
2023-05-10T03:04:39.122Z,100825.97
2023-05-10T03:07:09.218Z,100825.00
2023-05-10T03:09:39.075Z,100827.63
2023-05-10T03:12:11.237Z,100834.44
2023-05-10T03:14:52.824Z,100819.91
2023-05-10T03:17:49.860Z,100822.78
2023-05-10T03:20:38.755Z,100813.56
2023-05-10T03:23:34.878Z,100810.66
2023-05-10T03:26:05.991Z,100809.75
2023-05-10T03:28:37.947Z,100803.25
2023-05-10T03:31:09.242Z,100799.34
2023-05-10T03:33:38.887Z,100806.59
2023-05-10T03:36:09.231Z,100800.59
2023-05-10T03:38:38.816Z,100791.78
2023-05-10T03:41:08.565Z,100788.88
2023-05-10T03:43:39.083Z,100779.97
2023-05-10T03:46:09.471Z,100783.53
2023-05-10T03:48:39.232Z,100777.41
2023-05-10T03:51:08.822Z,100788.25
2023-05-10T03:53:38.424Z,100770.66
2023-05-10T03:56:08.210Z,100769.06
2023-05-10T03:58:37.830Z,100768.03
2023-05-10T04:01:07.589Z,100757.22
2023-05-10T04:03:38.861Z,100761.44
2023-05-10T04:06:10.718Z,100749.41
2023-05-10T04:08:40.551Z,100755.19
2023-05-10T04:11:11.525Z,100747.41
2023-05-10T04:13:41.549Z,100745.72
2023-05-10T04:16:11.124Z,100746.81
2023-05-10T04:18:42.125Z,100727.03
2023-05-10T04:21:18.302Z,100730.28
2023-05-10T04:23:48.113Z,100722.34
2023-05-10T04:26:18.271Z,100722.97
2023-05-10T04:28:48.100Z,100722.13
2023-05-10T04:31:17.721Z,100724.75
2023-05-10T04:33:47.323Z,100722.13
2023-05-10T04:36:16.962Z,100721.53
2023-05-10T04:38:46.527Z,100722.66
2023-05-10T04:41:16.092Z,100710.81
2023-05-10T04:43:45.766Z,100707.03
2023-05-10T04:46:15.420Z,100718.81
2023-05-10T04:48:45.152Z,100712.28
2023-05-10T04:51:14.876Z,100716.41
2023-05-10T04:53:48.577Z,100700.25
2023-05-10T04:56:27.342Z,100703.44
2023-05-10T04:58:57.049Z,100697.06
2023-05-10T05:01:26.736Z,100701.78
2023-05-10T05:03:56.595Z,100701.28
2023-05-10T05:06:27.489Z,100697.75
2023-05-10T05:08:57.144Z,100687.78
2023-05-10T05:11:28.003Z,100696.41
2023-05-10T05:13:57.693Z,100684.97
2023-05-10T05:16:28.058Z,100674.69
2023-05-10T05:18:59.053Z,100670.41
2023-05-10T05:21:29.663Z,100677.34
2023-05-10T05:23:59.272Z,100673.59
2023-05-10T05:26:30.063Z,100660.59
2023-05-10T05:28:59.687Z,100665.06
2023-05-10T05:31:29.299Z,100659.91
2023-05-10T05:33:59.021Z,100653.69
2023-05-10T05:36:28.687Z,100654.91
2023-05-10T05:38:58.259Z,100647.81
2023-05-10T05:41:28.517Z,100652.59
2023-05-10T05:43:58.131Z,100652.88
2023-05-10T05:46:27.730Z,100645.44
2023-05-10T05:48:57.339Z,100644.69
2023-05-10T05:51:27.101Z,100641.09
2023-05-10T05:53:56.676Z,100635.84
2023-05-10T05:56:26.902Z,100633.34
2023-05-10T05:58:56.525Z,100627.16
2023-05-10T06:01:26.169Z,100618.91
2023-05-10T06:03:55.900Z,100622.28
2023-05-10T06:06:25.693Z,100620.59
2023-05-10T06:08:55.371Z,100608.25
2023-05-10T06:11:25.414Z,100615.97
2023-05-10T06:13:55.089Z,100614.03
2023-05-10T06:16:25.008Z,100609.69
2023-05-10T06:18:54.727Z,100603.94
2023-05-10T06:21:24.331Z,100608.78
2023-05-10T06:23:53.899Z,100595.72
2023-05-10T06:26:23.554Z,100601.13
2023-05-10T06:28:53.183Z,100595.41
2023-05-10T06:31:23.467Z,100599.97
2023-05-10T06:33:55.311Z,100597.00
2023-05-10T06:36:28.801Z,100592.63
2023-05-10T06:38:58.669Z,100589.28
2023-05-10T06:41:28.267Z,100593.44
2023-05-10T06:43:58.146Z,100589.69
2023-05-10T06:46:28.116Z,100589.00
2023-05-10T06:48:57.681Z,100581.50
2023-05-10T06:51:27.505Z,100581.03
2023-05-10T06:53:57.104Z,100580.22
2023-05-10T06:56:26.620Z,100585.84
2023-05-10T06:58:56.326Z,100578.16
2023-05-10T07:01:25.971Z,100577.03
2023-05-10T07:03:55.696Z,100577.06
2023-05-10T07:06:33.415Z,100576.56
2023-05-10T07:09:04.003Z,100580.19
2023-05-10T07:11:33.667Z,100572.91
2023-05-10T07:14:03.319Z,100571.09
2023-05-10T07:16:32.887Z,100564.13
2023-05-10T07:19:02.602Z,100574.19
2023-05-10T07:21:32.295Z,100567.25
2023-05-10T07:24:02.768Z,100571.38
2023-05-10T07:26:32.508Z,100572.63
2023-05-10T07:29:02.211Z,100571.72
2023-05-10T07:31:31.935Z,100563.75
2023-05-10T07:34:01.792Z,100567.41
2023-05-10T07:36:31.411Z,100565.31
2023-05-10T07:39:00.965Z,100564.47
2023-05-10T07:41:30.565Z,100572.97
2023-05-10T07:44:00.195Z,100569.72
2023-05-10T07:46:29.926Z,100574.53
2023-05-10T07:49:00.855Z,100569.47
2023-05-10T07:51:31.130Z,100575.03
2023-05-10T07:54:00.802Z,100562.88
2023-05-10T07:56:34.307Z,100573.88
2023-05-10T07:59:06.113Z,100579.03
2023-05-10T08:01:37.365Z,100577.47
2023-05-10T08:04:07.207Z,100578.22
2023-05-10T08:06:36.984Z,100587.22
2023-05-10T08:09:06.694Z,100589.16
2023-05-10T08:11:36.294Z,100581.88
2023-05-10T08:14:05.941Z,100586.69
2023-05-10T08:16:35.534Z,100582.53
2023-05-10T08:19:05.335Z,100584.94
2023-05-10T08:21:35.172Z,100579.78
2023-05-10T08:24:04.795Z,100588.88
2023-05-10T08:26:35.450Z,100580.66
2023-05-10T08:29:05.078Z,100588.47
2023-05-10T08:31:34.783Z,100581.97
2023-05-10T08:34:04.374Z,100585.22
2023-05-10T08:36:34.548Z,100588.34
2023-05-10T08:39:04.241Z,100593.00
2023-05-10T08:41:39.450Z,100589.31
2023-05-10T08:44:11.600Z,100587.59
2023-05-10T08:46:46.569Z,100586.25
2023-05-10T08:49:22.888Z,100590.25
2023-05-10T08:51:56.536Z,100588.09
2023-05-10T08:54:27.440Z,100592.53
2023-05-10T08:56:57.132Z,100592.25
2023-05-10T08:59:26.842Z,100599.91
2023-05-10T09:01:58.860Z,100600.72
2023-05-10T09:04:28.834Z,100599.72
2023-05-10T09:06:58.672Z,100602.66
2023-05-10T09:09:30.228Z,100608.50
2023-05-10T09:12:00.189Z,100612.19
2023-05-10T09:14:30.482Z,100613.09
2023-05-10T09:17:00.245Z,100612.88
2023-05-10T09:19:31.348Z,100622.31
2023-05-10T09:22:02.744Z,100624.09
2023-05-10T09:24:33.628Z,100620.78
2023-05-10T09:27:04.720Z,100623.72
2023-05-10T09:29:46.659Z,100625.25
2023-05-10T09:32:18.303Z,100617.88
2023-05-10T09:34:48.436Z,100629.66
2023-05-10T09:37:17.991Z,100628.13
2023-05-10T09:39:47.492Z,100635.69
2023-05-10T09:42:21.880Z,100634.13
2023-05-10T09:44:51.487Z,100639.66
2023-05-10T09:47:21.750Z,100645.91
2023-05-10T09:49:55.590Z,100645.09
2023-05-10T09:52:25.122Z,100647.03
2023-05-10T09:54:58.054Z,100642.53
2023-05-10T09:57:28.566Z,100640.53
2023-05-10T10:00:00.087Z,100636.00
2023-05-10T10:02:32.224Z,100641.16
2023-05-10T10:05:06.674Z,100638.28
2023-05-10T10:07:37.635Z,100644.69
2023-05-10T10:10:07.846Z,100650.69
2023-05-10T10:12:38.202Z,100649.25
2023-05-10T10:15:09.242Z,100650.97
2023-05-10T10:17:43.159Z,100651.03
2023-05-10T10:20:13.721Z,100649.03
2023-05-10T10:22:43.375Z,100654.91
2023-05-10T10:25:19.183Z,100659.56
2023-05-10T10:28:08.751Z,100660.59
2023-05-10T10:30:51.398Z,100664.00
2023-05-10T10:33:42.710Z,100666.00
2023-05-10T10:36:13.027Z,100671.59
2023-05-10T10:38:51.621Z,100675.81
2023-05-10T10:41:37.391Z,100681.50
2023-05-10T10:44:27.891Z,100676.63
2023-05-10T10:47:08.321Z,100689.44
2023-05-10T10:49:44.076Z,100686.03
2023-05-10T10:52:30.231Z,100685.22
2023-05-10T10:55:32.276Z,100696.84
2023-05-10T10:58:06.710Z,100695.91
2023-05-10T11:00:40.883Z,100695.81
2023-05-10T11:03:16.973Z,100693.13
2023-05-10T11:05:47.069Z,100701.94
2023-05-10T11:08:19.372Z,100710.28
2023-05-10T11:11:06.791Z,100705.31
2023-05-10T11:13:49.947Z,100714.03
2023-05-10T11:16:27.836Z,100723.41
2023-05-10T11:19:06.370Z,100725.63
2023-05-10T11:21:37.614Z,100720.28
2023-05-10T11:24:17.373Z,100725.94
2023-05-10T11:26:47.073Z,100729.44
2023-05-10T11:29:17.429Z,100733.72
2023-05-10T11:31:49.012Z,100736.53
2023-05-10T11:34:32.855Z,100749.16
2023-05-10T11:37:03.441Z,100749.63
2023-05-10T11:39:35.938Z,100752.56
2023-05-10T11:42:05.606Z,100750.09
2023-05-10T11:44:36.204Z,100748.88
2023-05-10T11:47:06.028Z,100757.03
2023-05-10T11:49:35.646Z,100769.38
2023-05-10T11:52:10.044Z,100770.94
2023-05-10T11:54:39.836Z,100771.16
2023-05-10T11:57:09.413Z,100777.72
2023-05-10T11:59:41.724Z,100774.13
2023-05-10T12:02:13.756Z,100776.47
2023-05-10T12:04:44.283Z,100778.16
2023-05-10T12:07:13.927Z,100780.25
2023-05-10T12:10:10.234Z,100794.16
2023-05-10T12:12:47.615Z,100799.06
2023-05-10T12:15:25.006Z,100799.22
2023-05-10T12:17:54.782Z,100806.09
2023-05-10T12:20:26.630Z,100809.69
2023-05-10T12:23:00.592Z,100809.34
2023-05-10T12:25:37.893Z,100808.56
2023-05-10T12:28:09.681Z,100809.38
2023-05-10T12:30:40.426Z,100807.59
2023-05-10T12:33:20.541Z,100816.09
2023-05-10T12:35:53.196Z,100813.97
2023-05-10T12:38:33.509Z,100827.84
2023-05-10T12:41:04.998Z,100825.09
2023-05-10T12:43:35.422Z,100824.94
2023-05-10T12:46:31.238Z,100825.09
2023-05-10T12:49:08.435Z,100829.47
2023-05-10T12:51:38.853Z,100840.63
2023-05-10T12:54:08.479Z,100838.78
2023-05-10T12:56:39.500Z,100840.91
2023-05-10T12:59:09.078Z,100836.50
2023-05-10T13:01:38.850Z,100841.41
2023-05-10T13:04:08.621Z,100841.25
2023-05-10T13:06:38.227Z,100836.63
2023-05-10T13:09:07.841Z,100860.31
2023-05-10T13:11:37.684Z,100845.31
2023-05-10T13:14:07.431Z,100850.59
2023-05-10T13:16:37.124Z,100852.28
2023-05-10T13:19:06.935Z,100863.06
2023-05-10T13:21:36.561Z,100861.59
2023-05-10T13:24:06.212Z,100859.69
2023-05-10T13:26:35.962Z,100853.28
2023-05-10T13:29:06.194Z,100865.72
2023-05-10T13:31:36.476Z,100859.28
2023-05-10T13:34:06.708Z,100855.38
2023-05-10T13:36:36.315Z,100858.81
2023-05-10T13:39:07.739Z,100860.28
2023-05-10T13:41:37.263Z,100861.41
2023-05-10T13:44:06.862Z,100868.28
2023-05-10T13:46:36.445Z,100873.88
2023-05-10T13:49:05.995Z,100877.16
2023-05-10T13:51:36.585Z,100869.75
2023-05-10T13:54:06.498Z,100866.13
2023-05-10T13:56:36.076Z,100868.34
2023-05-10T13:59:05.675Z,100867.09
2023-05-10T14:01:35.304Z,100865.78
2023-05-10T14:04:05.156Z,100866.44
2023-05-10T14:06:34.906Z,100863.03
2023-05-10T14:09:04.737Z,100858.44
2023-05-10T14:11:34.283Z,100860.59
2023-05-10T14:14:04.053Z,100862.78
2023-05-10T14:16:33.774Z,100860.56
2023-05-10T14:19:04.235Z,100863.47
2023-05-10T14:21:33.959Z,100871.03
2023-05-10T14:24:03.690Z,100870.25
2023-05-10T14:26:33.815Z,100860.16
2023-05-10T14:29:03.486Z,100868.63
2023-05-10T14:31:33.285Z,100852.63
2023-05-10T14:34:02.928Z,100857.97
2023-05-10T14:36:32.517Z,100857.63
2023-05-10T14:39:02.146Z,100860.13
2023-05-10T14:41:32.687Z,100872.13
2023-05-10T14:44:02.349Z,100876.91
2023-05-10T14:46:32.490Z,100886.34
2023-05-10T14:49:02.332Z,100884.88
2023-05-10T14:51:32.189Z,100882.75
2023-05-10T14:54:02.085Z,100873.44
2023-05-10T14:56:31.693Z,100874.31
2023-05-10T14:59:02.649Z,100882.38
2023-05-10T15:01:34.239Z,100885.78
2023-05-10T15:04:04.390Z,100887.38
2023-05-10T15:06:36.332Z,100879.38
2023-05-10T15:09:06.493Z,100881.44
2023-05-10T15:11:36.075Z,100884.34
2023-05-10T15:14:05.686Z,100880.06
2023-05-10T15:16:36.252Z,100886.75
2023-05-10T15:19:06.150Z,100884.88
2023-05-10T15:21:41.129Z,100885.59
2023-05-10T15:24:12.092Z,100888.78
2023-05-10T15:26:41.812Z,100889.44
2023-05-10T15:29:11.345Z,100889.88
2023-05-10T15:31:42.015Z,100894.28
2023-05-10T15:34:11.624Z,100894.63
2023-05-10T15:36:41.149Z,100895.31
2023-05-10T15:39:11.718Z,100888.88
2023-05-10T15:41:41.436Z,100890.94
2023-05-10T15:44:10.961Z,100884.97
2023-05-10T15:46:40.780Z,100895.53
2023-05-10T15:49:10.432Z,100902.84
2023-05-10T15:51:39.998Z,100896.38
2023-05-10T15:54:09.638Z,100898.66
2023-05-10T15:56:39.621Z,100893.50
2023-05-10T15:59:10.233Z,100882.13
2023-05-10T16:01:40.025Z,100886.03
2023-05-10T16:04:10.009Z,100887.47
2023-05-10T16:06:39.717Z,100886.66
2023-05-10T16:09:09.327Z,100890.03
2023-05-10T16:11:39.072Z,100886.25
2023-05-10T16:14:08.949Z,100886.44
2023-05-10T16:16:38.649Z,100879.16
2023-05-10T16:19:08.848Z,100880.91
2023-05-10T16:21:39.580Z,100886.94
2023-05-10T16:24:09.370Z,100881.34
2023-05-10T16:26:42.275Z,100876.69
2023-05-10T16:29:12.188Z,100884.72
2023-05-10T16:31:41.745Z,100881.13
2023-05-10T16:34:11.569Z,100880.63
2023-05-10T16:36:41.122Z,100881.75
2023-05-10T16:39:13.550Z,100879.31
2023-05-10T16:41:43.181Z,100877.28
2023-05-10T16:44:12.734Z,100877.31
2023-05-10T16:46:42.440Z,100881.13
2023-05-10T16:49:13.829Z,100869.19
2023-05-10T16:51:43.430Z,100871.28
2023-05-10T16:54:13.089Z,100874.91
2023-05-10T16:56:42.998Z,100861.78
2023-05-10T16:59:12.527Z,100852.47
2023-05-10T17:01:42.153Z,100870.47
2023-05-10T17:04:11.914Z,100858.84
2023-05-10T17:06:41.679Z,100855.13
2023-05-10T17:09:11.243Z,100855.03
2023-05-10T17:11:40.777Z,100852.38
2023-05-10T17:14:11.592Z,100859.72
2023-05-10T17:16:41.375Z,100855.75
2023-05-10T17:19:11.542Z,100846.94
2023-05-10T17:21:41.106Z,100847.66
2023-05-10T17:24:10.818Z,100846.09
2023-05-10T17:26:40.395Z,100860.88
2023-05-10T17:29:10.306Z,100867.44
2023-05-10T17:31:40.065Z,100864.75
2023-05-10T17:34:09.722Z,100859.94
2023-05-10T17:36:39.355Z,100857.34
2023-05-10T17:39:09.146Z,100866.75
2023-05-10T17:41:38.769Z,100863.34
2023-05-10T17:44:08.922Z,100866.06
2023-05-10T17:46:39.445Z,100858.50
2023-05-10T17:49:09.045Z,100862.53
2023-05-10T17:51:38.684Z,100863.88
2023-05-10T17:54:08.283Z,100861.09
2023-05-10T17:56:37.949Z,100863.13
2023-05-10T17:59:07.719Z,100867.00
2023-05-10T18:01:37.502Z,100861.47
2023-05-10T18:04:07.594Z,100871.41
2023-05-10T18:06:40.736Z,100868.94
2023-05-10T18:09:11.172Z,100871.88
2023-05-10T18:11:41.368Z,100874.19
2023-05-10T18:14:10.980Z,100863.50
2023-05-10T18:16:40.564Z,100865.94
2023-05-10T18:19:10.251Z,100877.28
2023-05-10T18:21:40.078Z,100868.97
2023-05-10T18:24:09.850Z,100878.56
2023-05-10T18:26:39.498Z,100875.19
2023-05-10T18:29:09.178Z,100881.56
2023-05-10T18:31:38.788Z,100889.44
2023-05-10T18:34:08.447Z,100884.03
2023-05-10T18:36:38.082Z,100889.19
2023-05-10T18:39:07.680Z,100891.28
2023-05-10T18:41:37.335Z,100885.72
2023-05-10T18:44:07.005Z,100889.41
2023-05-10T18:46:37.276Z,100888.94
2023-05-10T18:49:07.943Z,100892.34
2023-05-10T18:51:40.213Z,100886.91
2023-05-10T18:54:09.799Z,100894.91
2023-05-10T18:56:41.575Z,100879.53
2023-05-10T18:59:11.163Z,100887.50
2023-05-10T19:01:42.566Z,100886.84
2023-05-10T19:04:12.129Z,100891.56
2023-05-10T19:06:43.364Z,100890.97
2023-05-10T19:09:13.417Z,100894.56
2023-05-10T19:11:44.767Z,100897.22
2023-05-10T19:14:14.572Z,100904.97
2023-05-10T19:16:44.169Z,100905.97
2023-05-10T19:19:13.855Z,100907.75
2023-05-10T19:21:43.482Z,100907.50
2023-05-10T19:24:13.959Z,100915.03
2023-05-10T19:26:43.551Z,100914.75
2023-05-10T19:29:13.175Z,100915.38
2023-05-10T19:31:43.714Z,100913.03
2023-05-10T19:34:13.405Z,100917.22
2023-05-10T19:36:43.058Z,100915.19
2023-05-10T19:39:13.091Z,100917.19
2023-05-10T19:41:42.708Z,100923.06
2023-05-10T19:44:12.316Z,100922.88
2023-05-10T19:46:42.074Z,100924.69
2023-05-10T19:49:11.799Z,100925.56
2023-05-10T19:51:41.547Z,100927.50
2023-05-10T19:54:11.291Z,100929.63
2023-05-10T19:56:40.887Z,100929.88
2023-05-10T19:59:11.176Z,100921.75
2023-05-10T20:01:40.881Z,100919.72
2023-05-10T20:04:11.597Z,100930.09
2023-05-10T20:06:41.618Z,100927.63
2023-05-10T20:09:11.645Z,100928.91
2023-05-10T20:11:41.239Z,100925.44
2023-05-10T20:14:11.431Z,100923.78
2023-05-10T20:16:40.997Z,100933.63
2023-05-10T20:19:10.738Z,100934.31
2023-05-10T20:21:40.458Z,100928.34
2023-05-10T20:24:11.716Z,100924.41
2023-05-10T20:26:41.276Z,100932.97
2023-05-10T20:29:11.107Z,100929.53
2023-05-10T20:31:40.842Z,100929.25
2023-05-10T20:34:10.531Z,100929.28
2023-05-10T20:36:40.557Z,100933.31
2023-05-10T20:39:10.884Z,100931.09
2023-05-10T20:41:40.825Z,100939.91
2023-05-10T20:44:10.532Z,100939.00
2023-05-10T20:46:40.131Z,100942.59
2023-05-10T20:49:11.414Z,100954.34
2023-05-10T20:51:40.994Z,100951.06
2023-05-10T20:54:10.630Z,100957.88
2023-05-10T20:56:40.212Z,100955.47
2023-05-10T20:59:09.841Z,100952.94
2023-05-10T21:01:39.420Z,100953.03
2023-05-10T21:04:09.002Z,100958.84
2023-05-10T21:06:38.588Z,100962.06
2023-05-10T21:09:08.667Z,100965.00
2023-05-10T21:11:39.848Z,100965.09
2023-05-10T21:14:10.175Z,100964.16
2023-05-10T21:16:40.097Z,100967.44
2023-05-10T21:19:10.252Z,100986.66
2023-05-10T21:21:39.966Z,100981.13
2023-05-10T21:24:09.755Z,100987.22
2023-05-10T21:26:39.581Z,100980.66
2023-05-10T21:29:09.645Z,100976.41
2023-05-10T21:31:39.289Z,100979.13
2023-05-10T21:34:08.902Z,100981.34
2023-05-10T21:36:38.481Z,100976.25
2023-05-10T21:39:08.074Z,100982.75
2023-05-10T21:41:37.718Z,100975.84
2023-05-10T21:44:07.396Z,100976.44
2023-05-10T21:46:37.169Z,100980.97
2023-05-10T21:49:06.823Z,100985.34
2023-05-10T21:51:36.450Z,100990.50
2023-05-10T21:54:06.162Z,100984.38
2023-05-10T21:56:35.758Z,100989.53
2023-05-10T21:59:05.929Z,100985.06
2023-05-10T22:01:35.686Z,100989.69
2023-05-10T22:04:05.312Z,100989.31
2023-05-10T22:06:34.877Z,100986.53
2023-05-10T22:09:04.586Z,100989.59
2023-05-10T22:11:34.208Z,100988.00
2023-05-10T22:14:03.800Z,101003.59
2023-05-10T22:16:33.464Z,101008.56
2023-05-10T22:19:03.133Z,101012.28
2023-05-10T22:21:33.409Z,101013.53
2023-05-10T22:24:03.121Z,101017.19
2023-05-10T22:26:32.843Z,101021.25
2023-05-10T22:29:02.490Z,101018.34
2023-05-10T22:31:32.310Z,101015.84
2023-05-10T22:34:02.054Z,101019.81
2023-05-10T22:36:32.045Z,101018.63
2023-05-10T22:39:01.626Z,101032.19
2023-05-10T22:41:31.233Z,101027.41
2023-05-10T22:44:00.946Z,101033.50
2023-05-10T22:46:31.153Z,101036.00
2023-05-10T22:49:01.678Z,101030.59
2023-05-10T22:51:31.271Z,101027.31
2023-05-10T22:54:01.019Z,101027.31
2023-05-10T22:56:30.673Z,101026.25
2023-05-10T22:59:00.466Z,101031.22
2023-05-10T23:01:31.038Z,101030.34
2023-05-10T23:04:00.715Z,101028.22
2023-05-10T23:06:30.289Z,101033.19
2023-05-10T23:08:59.902Z,101028.63
2023-05-10T23:11:29.527Z,101031.00
2023-05-10T23:13:59.113Z,101018.84
2023-05-10T23:16:28.849Z,101035.50
2023-05-10T23:18:58.622Z,101024.16
2023-05-10T23:21:31.338Z,101036.66
2023-05-10T23:24:01.949Z,101036.13
2023-05-10T23:26:31.618Z,101025.69
2023-05-10T23:29:03.348Z,101029.75
2023-05-10T23:31:32.906Z,101030.91
2023-05-10T23:34:02.503Z,101033.69
2023-05-10T23:36:33.309Z,101027.09
2023-05-10T23:39:02.898Z,101024.13
2023-05-10T23:41:33.255Z,101029.44
2023-05-10T23:44:06.122Z,101029.88
2023-05-10T23:46:35.656Z,101035.44
2023-05-10T23:49:05.379Z,101030.66
2023-05-10T23:51:35.471Z,101023.03
2023-05-10T23:54:05.121Z,101030.44
2023-05-10T23:56:34.677Z,101031.97
2023-05-10T23:59:04.290Z,101030.13
